Time;durP1;ratioP1;P1;durP2;ratioP2;P2;SDS_P1;SDS_P2;PMS_P1;PMS_P2;Temp;Humidity;BMP_temperature;BMP_pressure;BME280_temperature;BME280_humidity;BME280_pressure;Samples;Min_cycle;Max_cycle;Signal;HPM_P1;HPM_P2
2023/11/30 00:01:56;;;;;;;8.23;6.30;;;;;;;-145.63;64.99;39255.00;5082432;28;20066;-65
2023/11/30 00:04:22;;;;;;;8.05;6.13;;;;;;;-145.63;65.22;39227.63;5072893;28;20217;-64
2023/11/30 00:06:48;;;;;;;7.00;5.63;;;;;;;-145.63;65.18;39262.84;5074184;28;20023;-64
2023/11/30 00:09:13;;;;;;;6.97;6.20;;;;;;;-145.63;65.75;39233.50;5085324;28;20077;-65
2023/11/30 00:11:39;;;;;;;8.90;6.28;;;;;;;-145.63;65.60;39231.53;5066398;28;20036;-64
2023/11/30 00:14:05;;;;;;;8.60;6.10;;;;;;;-145.63;65.91;39255.00;5081344;28;20351;-65
2023/11/30 00:16:30;;;;;;;7.85;6.00;;;;;;;-145.63;65.08;39266.75;5085578;28;20070;-65
2023/11/30 00:18:56;;;;;;;8.25;6.10;;;;;;;-145.63;65.39;39229.59;5079929;28;20040;-65
2023/11/30 00:21:22;;;;;;;7.03;5.65;;;;;;;-145.63;64.85;39243.28;5067300;28;20037;-66
2023/11/30 00:23:48;;;;;;;6.30;5.60;;;;;;;-145.63;64.96;39262.84;5085956;28;20028;-66
2023/11/30 00:26:15;;;;;;;7.93;6.30;;;;;;;-145.63;65.23;39256.97;5076804;28;20095;-66
2023/11/30 00:28:41;;;;;;;8.52;6.00;;;;;;;-145.63;64.40;39223.72;5086100;28;20050;-66
2023/11/30 00:31:07;;;;;;;8.88;6.10;;;;;;;-145.63;65.08;39270.66;5085975;28;20032;-64
2023/11/30 00:33:33;;;;;;;8.27;6.20;;;;;;;-145.63;65.47;39274.56;5083215;28;20377;-65
2023/11/30 00:35:59;;;;;;;10.73;3.75;;;;;;;-145.63;65.63;39247.19;5066063;28;20309;-64
2023/11/30 00:38:25;;;;;;;10.57;6.40;;;;;;;-145.63;66.32;39270.66;5083969;28;20031;-65
2023/11/30 00:40:50;;;;;;;10.25;6.97;;;;;;;-145.63;66.26;39249.16;5072015;28;20036;-65
2023/11/30 00:43:17;;;;;;;7.78;5.20;;;;;;;-145.63;66.36;39296.09;5074168;28;20317;-65
2023/11/30 00:45:43;;;;;;;7.75;5.38;;;;;;;-145.63;66.22;39241.31;5084696;28;20405;-64
2023/11/30 00:48:09;;;;;;;6.80;5.60;;;;;;;-145.63;66.30;39243.28;5085777;28;20087;-64
2023/11/30 00:50:35;;;;;;;7.70;5.80;;;;;;;-145.63;65.23;39286.31;5085341;28;20035;-65
2023/11/30 00:53:00;;;;;;;7.68;5.40;;;;;;;-145.63;65.21;39237.41;5070722;28;20094;-65
2023/11/30 00:55:26;;;;;;;8.32;5.70;;;;;;;-145.63;64.67;39245.25;5075209;28;20016;-64
2023/11/30 00:57:52;;;;;;;7.20;5.40;;;;;;;-145.63;65.19;39268.72;5085258;28;20032;-65
2023/11/30 01:00:17;;;;;;;8.55;6.00;;;;;;;-145.63;64.86;39268.72;5085066;28;20066;-65
2023/11/30 01:02:43;;;;;;;8.57;6.40;;;;;;;-145.63;63.98;39225.69;5065143;28;20025;-64
2023/11/30 01:05:09;;;;;;;8.82;6.50;;;;;;;-145.63;63.84;39253.06;5075368;28;20033;-65
2023/11/30 01:07:37;;;;;;;9.90;6.10;;;;;;;-145.63;63.71;39262.84;5081735;28;20338;-65
2023/11/30 01:10:04;;;;;;;10.23;6.25;;;;;;;-145.63;64.20;39249.16;5081883;28;20024;-65
2023/11/30 01:12:30;;;;;;;12.30;7.72;;;;;;;-145.63;64.15;39251.09;5085187;28;20032;-65
2023/11/30 01:14:56;;;;;;;13.43;8.38;;;;;;;-145.63;64.25;39260.88;5084289;28;20036;-66
2023/11/30 01:17:22;;;;;;;13.95;8.73;;;;;;;-145.63;64.18;39266.75;5081838;28;20036;-66
2023/11/30 01:19:48;;;;;;;11.95;7.85;;;;;;;-145.63;64.34;39282.41;5071810;28;20021;-64
2023/11/30 01:22:14;;;;;;;10.95;7.80;;;;;;;-145.63;63.95;39249.16;5064861;28;20020;-64
2023/11/30 01:24:40;;;;;;;11.20;7.43;;;;;;;-145.63;63.65;39258.94;5067926;28;20095;-64
2023/11/30 01:27:05;;;;;;;9.63;6.75;;;;;;;-145.63;63.41;39262.84;5084665;28;20039;-66
2023/11/30 01:29:32;;;;;;;11.02;5.65;;;;;;;-145.63;63.23;39249.16;5103762;28;20208;-66
2023/11/30 01:31:57;;;;;;;8.15;5.55;;;;;;;-145.63;63.03;39258.94;5091293;28;20040;-65
2023/11/30 01:34:23;;;;;;;7.80;6.03;;;;;;;-145.63;62.49;39258.94;5075555;28;20036;-65
2023/11/30 01:36:48;;;;;;;7.95;6.32;;;;;;;-145.63;63.47;39272.63;5068690;28;20028;-66
2023/11/30 01:39:15;;;;;;;6.68;5.20;;;;;;;-145.63;63.45;39274.56;5084866;28;20032;-65
2023/11/30 01:41:42;;;;;;;7.53;5.20;;;;;;;-145.63;63.97;39280.44;5080768;28;20197;-66
2023/11/30 01:44:08;;;;;;;7.00;5.00;;;;;;;-145.63;63.99;39260.88;5084650;28;20036;-66
2023/11/30 01:46:36;;;;;;;6.80;5.00;;;;;;;-145.63;64.05;39272.63;5084723;28;20374;-66
2023/11/30 01:49:02;;;;;;;8.07;5.30;;;;;;;-145.63;64.53;39278.47;5084326;28;20032;-65
2023/11/30 01:51:31;;;;;;;6.88;5.22;;;;;;;-145.63;64.36;39305.88;5084366;28;20021;-66
2023/11/30 01:53:59;;;;;;;5.00;4.45;;;;;;;-145.63;64.34;39247.19;5084710;28;20024;-66
2023/11/30 01:56:25;;;;;;;6.68;5.10;;;;;;;-145.63;64.07;39258.94;5065860;28;20294;-66
2023/11/30 01:58:52;;;;;;;5.72;4.35;;;;;;;-145.63;65.51;39241.31;5076690;28;20067;-67
2023/11/30 02:01:18;;;;;;;8.70;4.97;;;;;;;-145.63;64.86;39262.84;5076245;28;20025;-65
2023/11/30 02:03:45;;;;;;;9.05;5.93;;;;;;;-145.63;64.42;39249.16;5067846;28;20054;-66
2023/11/30 02:06:16;;;;;;;8.75;6.00;;;;;;;-145.63;64.17;39233.50;5084253;28;20025;-66
2023/11/30 02:08:42;;;;;;;8.23;6.60;;;;;;;-145.63;64.32;39247.19;5084226;28;20154;-65
2023/11/30 02:11:08;;;;;;;11.65;7.28;;;;;;;-145.63;64.00;39256.97;5068058;28;20198;-64
2023/11/30 02:13:34;;;;;;;9.52;6.70;;;;;;;-145.63;64.71;39223.72;5074270;28;20200;-65
2023/11/30 02:16:00;;;;;;;12.68;6.90;;;;;;;-145.63;64.39;39196.34;5083808;28;20069;-65
2023/11/30 02:18:26;;;;;;;8.05;6.38;;;;;;;-145.63;64.37;39270.66;5082087;28;20031;-65
2023/11/30 02:21:11;;;;;;;8.90;6.13;;;;;;;-145.63;64.61;39274.56;5063223;28;20100;-65
2023/11/30 02:23:37;;;;;;;6.80;4.95;;;;;;;-145.63;64.66;39253.06;5082796;28;20036;-65
2023/11/30 02:26:03;;;;;;;7.35;5.30;;;;;;;-145.63;64.96;39260.88;5082768;28;20024;-65
2023/11/30 02:28:28;;;;;;;6.80;4.20;;;;;;;-145.63;64.59;39249.16;5093300;28;20036;-65
2023/11/30 02:30:54;;;;;;;8.25;4.95;;;;;;;-145.63;64.34;38680.06;5098960;28;20065;-66
2023/11/30 02:33:19;;;;;;;4.47;4.05;;;;;;;-145.63;64.64;39264.78;5083591;28;20025;-65
2023/11/30 02:35:45;;;;;;;6.40;4.72;;;;;;;-145.63;64.38;39268.72;5078966;28;20036;-65
2023/11/30 02:38:11;;;;;;;4.65;3.75;;;;;;;-145.63;64.20;39260.88;5083609;28;20035;-67
2023/11/30 02:40:36;;;;;;;5.28;4.07;;;;;;;-145.63;63.58;39270.66;5073222;28;20025;-65
2023/11/30 02:43:02;;;;;;;5.10;4.18;;;;;;;-145.63;63.56;39249.16;5068723;28;20036;-65
2023/11/30 02:45:27;;;;;;;4.65;3.92;;;;;;;-145.63;63.57;39227.63;5083425;28;20025;-63
2023/11/30 02:47:53;;;;;;;4.25;3.85;;;;;;;-145.63;63.99;39262.84;5066220;28;20025;-64
2023/11/30 02:50:19;;;;;;;4.53;4.10;;;;;;;-145.63;63.88;39255.00;5079122;28;20216;-64
2023/11/30 02:52:44;;;;;;;6.10;4.78;;;;;;;-145.63;63.84;39243.28;5071822;28;20052;-64
2023/11/30 02:55:10;;;;;;;4.78;4.15;;;;;;;-145.63;64.08;39251.09;5072550;28;20048;-65
2023/11/30 02:57:36;;;;;;;4.60;4.15;;;;;;;-145.63;63.57;39294.13;5081643;28;20039;-65
2023/11/30 03:00:02;;;;;;;5.80;4.13;;;;;;;-145.63;64.31;39282.41;5063116;28;20355;-65
2023/11/30 03:02:30;;;;;;;4.95;4.45;;;;;;;-145.63;63.34;39282.41;5080681;28;20028;-64
2023/11/30 03:04:56;;;;;;;5.88;4.57;;;;;;;-145.63;63.81;39286.31;5069697;28;20040;-65
2023/11/30 03:07:21;;;;;;;5.10;4.60;;;;;;;-145.63;63.97;39241.31;5076029;28;20024;-65
2023/11/30 03:09:47;;;;;;;5.07;4.57;;;;;;;-145.63;63.70;39253.06;5082948;28;20376;-65
2023/11/30 03:12:14;;;;;;;5.13;4.40;;;;;;;-145.63;63.95;39339.13;5079520;28;20043;-65
2023/11/30 03:14:45;;;;;;;5.68;4.40;;;;;;;-145.63;63.89;39266.75;5078146;28;20020;-64
2023/11/30 03:17:10;;;;;;;5.38;4.30;;;;;;;-145.63;63.51;39247.19;5081032;28;20283;-65
2023/11/30 03:19:40;;;;;;;4.80;4.32;;;;;;;-145.63;63.60;39258.94;5082957;28;20029;-65
2023/11/30 03:22:08;;;;;;;6.55;4.53;;;;;;;-145.63;63.84;39319.56;5077063;28;20331;-66
2023/11/30 03:24:34;;;;;;;5.07;3.97;;;;;;;-145.63;63.31;38736.78;5064160;28;20280;-66
2023/11/30 03:27:00;;;;;;;5.10;4.28;;;;;;;-145.63;63.92;39282.41;5082592;28;20020;-65
2023/11/30 03:29:25;;;;;;;5.35;4.78;;;;;;;-145.63;62.75;39255.00;5098232;28;20027;-65
2023/11/30 03:31:51;;;;;;;4.60;4.20;;;;;;;-145.63;63.10;39266.75;5090173;28;20031;-65
2023/11/30 03:34:17;;;;;;;5.25;4.75;;;;;;;-145.63;62.64;39182.66;5073086;28;20044;-65
2023/11/30 03:36:42;;;;;;;6.45;4.38;;;;;;;-145.63;62.92;39253.06;5080263;28;20028;-64
2023/11/30 03:39:08;;;;;;;5.35;4.80;;;;;;;-145.63;62.79;39278.47;5062407;28;20037;-63
2023/11/30 03:41:34;;;;;;;5.47;4.97;;;;;;;-145.63;62.93;39243.28;5080204;28;20120;-62
2023/11/30 03:44:00;;;;;;;5.63;5.05;;;;;;;-145.63;62.68;39256.97;5077826;28;20055;-63
2023/11/30 03:46:27;;;;;;;7.70;5.20;;;;;;;-145.63;63.56;38508.00;5070521;28;20028;-65
2023/11/30 03:48:54;;;;;;;5.95;5.20;;;;;;;-145.63;63.62;39253.06;5082228;28;20029;-64
2023/11/30 03:51:20;;;;;;;6.63;5.57;;;;;;;-145.63;63.08;39258.94;5082220;28;20054;-66
2023/11/30 03:53:46;;;;;;;6.53;5.53;;;;;;;-145.63;64.06;39288.25;5081260;28;20024;-66
2023/11/30 03:56:12;;;;;;;7.47;5.47;;;;;;;-145.63;63.80;39262.84;5067777;28;20025;-66
2023/11/30 03:58:38;;;;;;;6.90;5.88;;;;;;;-145.63;63.86;39247.19;5072077;28;20320;-66
2023/11/30 04:01:04;;;;;;;6.78;6.07;;;;;;;-145.63;64.58;39339.13;5076676;28;20033;-67
2023/11/30 04:03:30;;;;;;;6.93;5.93;;;;;;;-145.63;64.24;39247.19;5062695;28;20059;-65
2023/11/30 04:05:55;;;;;;;10.40;6.30;;;;;;;-145.63;64.50;39266.75;5082320;28;20021;-67
2023/11/30 04:08:21;;;;;;;7.32;6.60;;;;;;;-145.63;65.19;39282.41;5075468;28;20051;-67
2023/11/30 04:10:47;;;;;;;9.40;6.60;;;;;;;-145.63;64.61;39243.28;5080821;28;20028;-66
2023/11/30 04:13:12;;;;;;;8.10;7.05;;;;;;;-145.63;65.40;39305.88;5077864;28;20027;-68
2023/11/30 04:15:38;;;;;;;7.97;6.03;;;;;;;-145.63;64.92;39350.84;5080253;28;20021;-67
2023/11/30 04:18:04;;;;;;;8.70;6.55;;;;;;;-145.63;65.57;39255.00;5068150;28;20071;-67
2023/11/30 04:20:30;;;;;;;10.15;7.30;;;;;;;-145.63;65.30;39284.34;5070597;28;20067;-67
2023/11/30 04:22:55;;;;;;;8.18;6.05;;;;;;;-145.63;65.31;39243.28;5080221;28;20027;-66
2023/11/30 04:25:22;;;;;;;7.00;6.30;;;;;;;-145.63;66.05;39278.47;5081799;28;20091;-67
2023/11/30 04:27:48;;;;;;;8.45;7.55;;;;;;;-145.63;66.20;39276.53;5083161;28;20029;-67
2023/11/30 04:30:13;;;;;;;10.95;7.28;;;;;;;-145.63;66.24;39292.19;5101188;28;20036;-67
2023/11/30 04:32:39;;;;;;;9.57;8.57;;;;;;;-145.63;66.39;39249.16;5082796;28;20077;-65
2023/11/30 04:35:05;;;;;;;9.05;8.13;;;;;;;-145.63;65.94;39278.47;5081285;28;20048;-67
2023/11/30 04:37:31;;;;;;;9.65;8.60;;;;;;;-145.63;65.64;39260.88;5081255;28;20024;-67
2023/11/30 04:39:56;;;;;;;10.38;9.18;;;;;;;-145.63;66.06;39262.84;5078504;28;20178;-68
2023/11/30 04:42:22;;;;;;;11.25;9.02;;;;;;;-145.63;66.26;39258.94;5065589;28;20020;-66
2023/11/30 04:44:48;;;;;;;9.93;8.93;;;;;;;-145.63;66.51;39282.41;5081375;28;20028;-68
2023/11/30 04:47:14;;;;;;;9.48;8.48;;;;;;;-145.63;66.30;39274.56;5079750;28;20368;-71
2023/11/30 04:49:39;;;;;;;12.45;9.10;;;;;;;-145.63;66.41;39268.72;5081496;28;20024;-69
2023/11/30 04:52:05;;;;;;;9.45;8.57;;;;;;;-145.63;66.16;39260.88;5079496;28;20506;-69
2023/11/30 04:54:31;;;;;;;14.02;9.27;;;;;;;-145.63;66.75;39149.41;5082056;28;20032;-69
2023/11/30 04:56:56;;;;;;;13.35;9.90;;;;;;;-145.63;66.43;39294.13;5064807;28;20550;-69
2023/11/30 04:59:22;;;;;;;8.80;7.93;;;;;;;-145.63;66.90;39274.56;5080422;28;20043;-69
2023/11/30 05:01:48;;;;;;;10.80;9.70;;;;;;;-145.63;67.04;39241.31;5084229;28;20293;-68
2023/11/30 05:04:13;;;;;;;10.93;9.90;;;;;;;-145.63;66.63;39253.06;5078319;28;20031;-69
2023/11/30 05:06:39;;;;;;;11.20;9.93;;;;;;;-145.63;66.94;39290.22;5065687;28;20104;-68
2023/11/30 05:09:05;;;;;;;10.75;9.68;;;;;;;-145.63;66.51;38678.13;5084532;28;20081;-67
2023/11/30 05:11:31;;;;;;;13.32;9.23;;;;;;;-145.63;66.33;39278.47;5077193;28;20024;-67
2023/11/30 05:13:58;;;;;;;9.80;8.82;;;;;;;-145.63;66.59;39294.13;5083308;28;20343;-68
2023/11/30 05:16:24;;;;;;;13.15;10.10;;;;;;;-145.63;66.46;39272.63;5077639;28;20025;-68
2023/11/30 05:18:50;;;;;;;11.25;10.15;;;;;;;-145.63;66.58;39391.91;5067048;28;20032;-66
2023/11/30 05:21:16;;;;;;;10.77;9.65;;;;;;;-145.63;66.50;39276.53;5085068;28;20170;-67
2023/11/30 05:23:42;;;;;;;11.45;8.73;;;;;;;-145.63;66.80;39290.22;5084955;28;20029;-67
2023/11/30 05:26:07;;;;;;;12.00;9.57;;;;;;;-145.63;66.82;39176.78;5071702;28;20041;-68
2023/11/30 05:28:33;;;;;;;9.95;8.93;;;;;;;-145.63;66.89;39253.06;5081600;28;20074;-68
2023/11/30 05:30:59;;;;;;;10.93;9.82;;;;;;;-145.63;67.18;39266.75;5099221;28;20081;-68
2023/11/30 05:33:27;;;;;;;10.05;8.80;;;;;;;-145.63;67.47;39286.31;5085032;28;20035;-67
2023/11/30 05:35:53;;;;;;;9.73;8.73;;;;;;;-145.63;67.11;39278.47;5084851;28;20109;-68
2023/11/30 05:38:19;;;;;;;10.90;9.80;;;;;;;-145.63;67.02;39288.25;5084671;28;20234;-68
2023/11/30 05:40:45;;;;;;;10.68;7.97;;;;;;;-145.63;67.02;39258.94;5074772;28;20100;-68
2023/11/30 05:43:11;;;;;;;9.23;8.05;;;;;;;-145.63;66.88;39333.25;5070177;28;20070;-68
2023/11/30 05:45:37;;;;;;;10.00;9.00;;;;;;;-145.63;66.59;39278.47;5084559;28;20300;-67
2023/11/30 05:48:03;;;;;;;8.90;7.80;;;;;;;-145.63;66.41;39298.03;5084338;28;20032;-67
2023/11/30 05:50:28;;;;;;;8.88;6.95;;;;;;;-145.63;66.46;39323.47;5080850;28;20031;-67
2023/11/30 05:52:54;;;;;;;12.10;7.80;;;;;;;-145.63;66.82;39284.34;5082655;28;20020;-68
2023/11/30 05:55:20;;;;;;;11.35;7.15;;;;;;;-145.63;66.27;39286.31;5082832;28;20363;-67
2023/11/30 05:57:46;;;;;;;13.15;8.02;;;;;;;-145.63;66.46;39284.34;5083913;28;20071;-68
2023/11/30 06:00:12;;;;;;;9.27;7.65;;;;;;;-145.63;66.62;39282.41;5083690;28;20091;-68
2023/11/30 06:02:39;;;;;;;13.52;8.18;;;;;;;-145.63;66.65;39313.69;5066788;28;20024;-68
2023/11/30 06:05:05;;;;;;;9.55;7.97;;;;;;;-145.63;66.26;38859.97;5063483;28;20032;-69
2023/11/30 06:07:31;;;;;;;12.57;8.10;;;;;;;-145.63;66.08;39188.53;5063544;28;20062;-68
2023/11/30 06:09:57;;;;;;;10.57;8.70;;;;;;;-145.63;66.34;39264.78;5066987;28;20027;-68
2023/11/30 06:12:23;;;;;;;11.20;7.78;;;;;;;-145.63;66.26;39311.72;5083953;28;20028;-69
2023/11/30 06:14:49;;;;;;;11.45;9.02;;;;;;;-145.63;65.90;39325.41;5084009;28;20029;-71
2023/11/30 06:17:17;;;;;;;11.48;8.48;;;;;;;-145.63;65.94;39317.59;5082600;28;20165;-69
2023/11/30 06:19:43;;;;;;;11.95;9.18;;;;;;;-145.63;66.00;39313.69;5075234;28;20051;-69
2023/11/30 06:22:08;;;;;;;12.05;9.23;;;;;;;-145.63;65.94;39325.41;5068344;28;20031;-69
2023/11/30 06:24:35;;;;;;;10.40;9.20;;;;;;;-145.63;65.99;39294.13;5083791;28;20196;-68
2023/11/30 06:27:03;;;;;;;12.68;9.13;;;;;;;-145.63;66.24;39298.03;5063790;28;20029;-68
2023/11/30 06:29:29;;;;;;;14.20;8.88;;;;;;;-145.63;66.42;39290.22;5094718;28;20057;-69
2023/11/30 06:31:59;;;;;;;11.90;10.57;;;;;;;-145.63;66.20;39286.31;5088740;28;20027;-68
2023/11/30 06:34:26;;;;;;;13.07;11.27;;;;;;;-145.63;66.18;39319.56;5076666;28;20071;-68
2023/11/30 06:36:51;;;;;;;15.60;11.57;;;;;;;-145.63;66.37;39292.19;5075729;28;20078;-68
2023/11/30 06:39:18;;;;;;;12.35;10.85;;;;;;;-145.63;66.33;39290.22;5083459;28;20032;-68
2023/11/30 06:41:47;;;;;;;14.75;11.52;;;;;;;-145.63;66.67;39294.13;5077692;28;20017;-68
2023/11/30 06:44:13;;;;;;;13.93;11.95;;;;;;;-145.63;66.65;39339.13;5083331;28;20032;-68
2023/11/30 06:46:42;;;;;;;16.17;12.13;;;;;;;-145.63;66.34;39298.03;5074458;28;20040;-69
2023/11/30 06:49:08;;;;;;;15.85;13.20;;;;;;;-145.63;66.04;39323.47;5070100;28;20042;-69
2023/11/30 06:51:34;;;;;;;15.63;13.23;;;;;;;-145.63;66.24;39323.47;5083202;28;20059;-68
2023/11/30 06:54:00;;;;;;;17.35;14.07;;;;;;;-145.63;66.20;39300.00;5082870;28;20301;-68
2023/11/30 06:56:26;;;;;;;18.52;13.98;;;;;;;-145.63;66.11;39317.59;5083059;28;20031;-68
2023/11/30 06:58:52;;;;;;;16.17;13.13;;;;;;;-145.63;66.19;39278.47;5072675;28;20389;-67
2023/11/30 07:01:17;;;;;;;22.73;14.35;;;;;;;-145.63;66.63;39319.56;5068462;28;20228;-68
2023/11/30 07:03:44;;;;;;;18.52;14.23;;;;;;;-145.63;66.48;39317.59;5082512;28;20438;-69
2023/11/30 07:06:10;;;;;;;18.40;15.05;;;;;;;-145.63;66.49;39319.56;5063116;28;20025;-68
2023/11/30 07:08:36;;;;;;;19.15;14.90;;;;;;;-145.63;66.48;39301.94;5076785;28;20048;-69
2023/11/30 07:11:02;;;;;;;18.80;15.23;;;;;;;-145.63;66.20;39278.47;5081178;28;20492;-66
2023/11/30 07:13:27;;;;;;;19.65;15.73;;;;;;;-145.63;66.04;39315.66;5082964;28;20059;-69
2023/11/30 07:15:53;;;;;;;21.48;16.50;;;;;;;-145.63;65.56;39255.00;5081712;28;20032;-70
2023/11/30 07:18:19;;;;;;;18.92;15.50;;;;;;;-145.63;65.82;39323.47;5076159;28;20025;-69
2023/11/30 07:20:46;;;;;;;21.30;16.63;;;;;;;-145.63;65.62;39327.38;5072839;28;20033;-70
2023/11/30 07:23:12;;;;;;;20.63;17.40;;;;;;;-145.63;65.56;39303.91;5073341;28;20029;-70
2023/11/30 07:25:37;;;;;;;22.83;16.35;;;;;;;-145.63;65.50;39315.66;5076202;28;20176;-71
2023/11/30 07:28:04;;;;;;;20.13;16.20;;;;;;;-145.63;65.48;39341.06;5082420;28;20032;-68
2023/11/30 07:30:29;;;;;;;19.38;15.25;;;;;;;-145.63;65.34;39305.88;5081821;28;20025;-68
2023/11/30 07:32:55;;;;;;;21.30;16.33;;;;;;;-145.63;65.23;39315.66;5081094;28;20028;-69
2023/11/30 07:35:21;;;;;;;20.55;16.73;;;;;;;-145.63;64.92;39319.56;5079652;28;20317;-68
2023/11/30 07:37:48;;;;;;;18.58;15.55;;;;;;;-145.63;64.72;39300.00;5077994;28;20075;-70
2023/11/30 07:40:14;;;;;;;21.65;15.70;;;;;;;-145.63;64.77;39303.91;5078366;28;20025;-69
2023/11/30 07:42:39;;;;;;;20.55;16.55;;;;;;;-145.63;64.58;39300.00;5081903;28;20036;-68
2023/11/30 07:45:05;;;;;;;21.20;15.95;;;;;;;-145.63;64.19;39317.59;5080365;28;20312;-69
2023/11/30 07:47:33;;;;;;;20.30;15.60;;;;;;;-145.63;63.99;39315.66;5081294;28;20027;-69
2023/11/30 07:49:59;;;;;;;18.98;15.25;;;;;;;-145.63;63.88;39341.06;5081852;28;20020;-68
2023/11/30 07:52:24;;;;;;;19.33;15.00;;;;;;;-145.63;63.68;39372.34;5082064;28;20021;-69
2023/11/30 07:54:50;;;;;;;20.27;15.05;;;;;;;-145.63;63.80;39301.94;5081519;28;20020;-68
2023/11/30 07:57:17;;;;;;;20.90;15.40;;;;;;;-145.63;63.30;39331.28;5080998;28;20032;-70
2023/11/30 07:59:44;;;;;;;18.73;14.38;;;;;;;-145.63;63.29;39337.16;5082078;28;20030;-68
2023/11/30 08:02:09;;;;;;;21.73;14.65;;;;;;;-145.63;63.55;39339.13;5082185;28;20372;-69
2023/11/30 08:04:38;;;;;;;19.58;14.32;;;;;;;-145.63;63.24;39321.50;5075012;28;20033;-69
2023/11/30 08:07:04;;;;;;;21.08;14.70;;;;;;;-145.63;63.25;39352.81;5080053;28;20103;-69
2023/11/30 08:09:30;;;;;;;16.48;14.10;;;;;;;-145.63;63.02;39329.34;5080802;28;20024;-69
2023/11/30 08:11:56;;;;;;;20.10;13.30;;;;;;;-145.63;63.08;39317.59;5080370;28;20028;-69
2023/11/30 08:14:22;;;;;;;19.80;13.40;;;;;;;-145.63;63.12;39290.22;5081872;28;20182;-69
2023/11/30 08:16:47;;;;;;;17.63;13.70;;;;;;;-145.63;63.04;39133.75;5081363;28;20043;-68
2023/11/30 08:19:13;;;;;;;23.00;14.73;;;;;;;-145.63;63.49;39303.91;5081783;28;20031;-69
2023/11/30 08:21:40;;;;;;;19.52;13.57;;;;;;;-145.63;63.45;39374.31;5081730;28;20026;-69
2023/11/30 08:24:09;;;;;;;18.10;12.88;;;;;;;-145.63;63.43;39301.94;5081098;28;20016;-69
2023/11/30 08:26:35;;;;;;;13.85;10.95;;;;;;;-145.63;63.06;39305.88;5077395;28;20355;-68
2023/11/30 08:29:01;;;;;;;15.43;10.60;;;;;;;-145.63;63.54;39341.06;5084666;28;20055;-68
2023/11/30 08:31:28;;;;;;;15.23;10.45;;;;;;;-145.63;62.95;39311.72;5085453;28;20024;-69
2023/11/30 08:33:55;;;;;;;13.32;9.57;;;;;;;-145.63;62.97;39305.88;5084300;28;20016;-69
2023/11/30 08:36:21;;;;;;;11.05;9.60;;;;;;;-145.63;62.33;39321.50;5084814;28;20025;-70
2023/11/30 08:38:47;;;;;;;14.10;9.13;;;;;;;-145.63;61.48;39307.81;5085866;28;20067;-70
2023/11/30 08:41:13;;;;;;;11.30;9.05;;;;;;;-145.63;61.35;39329.34;5078836;28;20028;-70
2023/11/30 08:43:38;;;;;;;12.52;9.25;;;;;;;-145.63;61.06;39407.56;5085663;28;20028;-68
2023/11/30 08:46:04;;;;;;;10.27;8.52;;;;;;;-145.63;60.53;39282.41;5085140;28;20476;-68
2023/11/30 08:48:30;;;;;;;14.52;9.05;;;;;;;-145.63;60.40;39300.00;5085650;28;20094;-68
2023/11/30 08:50:56;;;;;;;12.05;9.93;;;;;;;-145.63;61.12;39288.25;5084147;28;20028;-70
2023/11/30 08:53:21;;;;;;;12.25;8.80;;;;;;;-145.63;60.13;39290.22;5085664;28;20283;-69
2023/11/30 08:55:47;;;;;;;10.77;8.75;;;;;;;-145.63;59.77;39303.91;5079686;28;20047;-69
2023/11/30 08:58:13;;;;;;;9.25;8.30;;;;;;;-145.63;59.59;39317.59;5084012;28;20025;-69
2023/11/30 09:00:42;;;;;;;13.15;10.07;;;;;;;-145.63;60.32;39309.78;5081788;28;20028;-69
2023/11/30 09:03:08;;;;;;;14.57;10.50;;;;;;;-145.63;59.77;39337.16;5084056;28;20021;-68
2023/11/30 09:05:33;;;;;;;15.40;10.73;;;;;;;-145.63;59.94;39294.13;5084211;28;20028;-69
2023/11/30 09:07:59;;;;;;;14.38;9.60;;;;;;;-145.63;59.40;39278.47;5083772;28;20024;-68
2023/11/30 09:10:26;;;;;;;10.20;8.80;;;;;;;-145.63;58.92;39280.44;5084052;28;20017;-69
2023/11/30 09:12:52;;;;;;;12.38;9.90;;;;;;;-145.63;58.55;39233.50;5084344;28;20335;-68
2023/11/30 09:15:19;;;;;;;12.25;9.48;;;;;;;-145.63;58.61;39278.47;5084088;28;20019;-68
2023/11/30 09:17:45;;;;;;;11.38;8.68;;;;;;;-145.63;58.12;39260.88;5083864;28;20028;-69
2023/11/30 09:20:11;;;;;;;12.40;9.30;;;;;;;-145.63;58.70;39247.19;5084470;28;20031;-69
2023/11/30 09:22:37;;;;;;;12.48;8.88;;;;;;;-145.63;58.78;39266.75;5084248;28;20036;-69
2023/11/30 09:25:04;;;;;;;12.95;9.68;;;;;;;-145.63;58.51;39255.00;5083979;28;20035;-68
2023/11/30 09:27:32;;;;;;;12.75;10.25;;;;;;;-145.63;59.12;39239.38;5084345;28;20035;-68
2023/11/30 09:29:59;;;;;;;12.02;10.68;;;;;;;-145.63;59.30;39255.00;5083115;28;20282;-69
2023/11/30 09:32:24;;;;;;;15.07;11.25;;;;;;;-145.63;59.43;39258.94;5083773;28;20016;-69
2023/11/30 09:34:50;;;;;;;14.45;11.23;;;;;;;-145.63;59.26;39251.09;5083714;28;20040;-69
2023/11/30 09:37:16;;;;;;;13.35;10.98;;;;;;;-145.63;59.06;39249.16;5083877;28;20038;-68
2023/11/30 09:39:42;;;;;;;15.52;11.13;;;;;;;-145.63;58.61;39278.47;5084076;28;20033;-69
2023/11/30 09:42:09;;;;;;;13.90;10.95;;;;;;;-145.63;58.36;39235.47;5082102;28;20021;-68
2023/11/30 09:44:35;;;;;;;16.30;12.00;;;;;;;-145.63;58.90;39272.63;5083884;28;20336;-69
2023/11/30 09:47:01;;;;;;;15.27;10.85;;;;;;;-145.63;58.96;39278.47;5084269;28;20075;-68
2023/11/30 09:49:27;;;;;;;13.80;11.55;;;;;;;-145.63;58.97;39249.16;5084001;28;20020;-69
2023/11/30 09:51:53;;;;;;;14.93;12.13;;;;;;;-145.63;58.72;39284.34;5083622;28;20332;-68
2023/11/30 09:54:21;;;;;;;14.68;11.02;;;;;;;-145.63;58.99;39278.47;5084364;28;20074;-68
2023/11/30 09:56:47;;;;;;;17.13;11.20;;;;;;;-145.63;58.80;39313.69;5084001;28;20036;-69
2023/11/30 09:59:13;;;;;;;14.48;12.23;;;;;;;-145.63;59.51;39292.19;5084041;28;20074;-69
2023/11/30 10:01:42;;;;;;;18.67;12.05;;;;;;;-145.63;59.00;39305.88;5084207;28;20025;-69
2023/11/30 10:12:06;;;;;;;12.10;9.38;;;;;;;-145.63;58.33;39190.47;5074880;28;20040;-68
2023/11/30 10:18:07;;;;;;;9.60;7.35;;;;;;;-145.63;56.85;39208.06;5080942;28;20047;-70
2023/11/30 10:20:35;;;;;;;8.85;7.18;;;;;;;-145.63;57.07;39219.81;5081167;28;20312;-70
2023/11/30 10:27:18;;;;;;;6.65;5.35;;;;;;;-145.63;54.81;39225.69;5076059;28;20063;-68
2023/11/30 10:33:26;;;;;;;6.07;5.07;;;;;;;-145.63;53.97;39217.84;5082521;28;20051;-68
2023/11/30 10:36:01;;;;;;;6.40;4.65;;;;;;;-145.63;53.50;39212.00;5072694;28;20036;-68
2023/11/30 10:52:43;;;;;;;7.15;5.43;;;;;;;-145.63;53.21;39176.78;5075083;28;20047;-68
2023/11/30 10:55:16;;;;;;;6.40;5.10;;;;;;;-145.63;52.51;39278.47;5067130;28;20095;-68
2023/11/30 10:57:53;;;;;;;8.38;4.82;;;;;;;-145.63;52.54;39200.25;5082471;28;20036;-68
2023/11/30 11:01:15;;;;;;;8.18;5.32;;;;;;;-145.63;52.67;39206.13;5063192;28;20032;-69
2023/11/30 11:07:30;;;;;;;9.13;5.35;;;;;;;-145.63;51.86;39213.94;5081489;28;20039;-68
2023/11/30 11:09:56;;;;;;;10.13;5.47;;;;;;;-145.63;50.70;39223.72;5072118;28;20299;-67
2023/11/30 11:12:52;;;;;;;8.02;5.30;;;;;;;-145.63;51.67;39212.00;5081026;28;20099;-69
2023/11/30 11:15:21;;;;;;;6.40;4.65;;;;;;;-145.63;51.25;39208.06;5080866;28;20037;-68
2023/11/30 11:17:47;;;;;;;7.10;4.75;;;;;;;-145.63;51.30;39223.72;5080357;28;20020;-69
2023/11/30 11:20:29;;;;;;;7.00;4.80;;;;;;;-145.63;52.17;39208.06;5082505;28;20034;-68
2023/11/30 11:22:57;;;;;;;7.57;5.28;;;;;;;-145.63;52.23;39223.72;5080939;28;20026;-67
2023/11/30 11:25:25;;;;;;;6.22;4.90;;;;;;;-145.63;51.89;39227.63;5079798;28;20027;-69
2023/11/30 11:27:51;;;;;;;7.90;5.30;;;;;;;-145.63;52.17;39255.00;5082232;28;20074;-69
2023/11/30 11:30:17;;;;;;;7.18;5.30;;;;;;;-145.63;52.47;39264.78;5082393;28;20024;-69
2023/11/30 11:32:44;;;;;;;6.85;4.85;;;;;;;-145.63;53.39;39247.19;5079444;28;20020;-69
2023/11/30 11:35:13;;;;;;;5.55;4.50;;;;;;;-145.63;52.48;39223.72;5082024;28;20044;-69
2023/11/30 11:37:38;;;;;;;5.75;4.20;;;;;;;-145.63;52.83;39243.28;5080641;28;20032;-68
2023/11/30 11:40:05;;;;;;;4.47;3.92;;;;;;;-145.63;53.27;39237.41;5075564;28;20039;-67
2023/11/30 11:42:32;;;;;;;5.40;3.95;;;;;;;-145.63;52.45;39233.50;5080560;28;20013;-68
2023/11/30 11:45:01;;;;;;;5.95;4.07;;;;;;;-145.63;52.50;38734.81;5081591;28;20051;-68
2023/11/30 11:47:31;;;;;;;5.72;4.20;;;;;;;-145.63;52.56;39245.25;5081924;28;20024;-68